createdAt,value
2022-11-18T00:00:18.546Z,99.90
2022-11-18T00:05:20.357Z,99.90
2022-11-18T00:10:22.193Z,99.90
2022-11-18T00:15:27.654Z,99.90
2022-11-18T00:20:37.041Z,99.90
2022-11-18T00:25:38.893Z,99.90
2022-11-18T00:30:40.618Z,99.90
2022-11-18T00:35:42.358Z,99.90
2022-11-18T00:40:44.513Z,99.90
2022-11-18T00:45:46.368Z,99.90
2022-11-18T00:50:49.760Z,99.90
2022-11-18T00:55:51.773Z,99.90
2022-11-18T01:00:54.349Z,99.90
2022-11-18T01:05:56.680Z,99.90
2022-11-18T01:11:18.559Z,99.90
2022-11-18T01:16:22.197Z,99.90
2022-11-18T01:21:24.558Z,99.90
2022-11-18T01:26:26.523Z,99.90
2022-11-18T01:31:28.286Z,99.90
2022-11-18T01:36:30.325Z,99.90
2022-11-18T01:41:32.592Z,99.90
2022-11-18T01:46:34.875Z,99.90
2022-11-18T01:51:46.871Z,99.90
2022-11-18T01:56:53.866Z,99.90
2022-11-18T02:01:59.585Z,99.90
2022-11-18T02:07:02.575Z,99.90
2022-11-18T02:12:06.456Z,99.90
2022-11-18T02:17:14.362Z,99.90
2022-11-18T02:22:40.217Z,99.90
2022-11-18T02:27:47.815Z,99.90
2022-11-18T02:32:57.525Z,99.90
2022-11-18T02:38:11.695Z,99.90
2022-11-18T02:43:22.200Z,99.90
2022-11-18T02:48:26.521Z,99.90
2022-11-18T02:53:31.771Z,99.90
2022-11-18T02:58:33.605Z,99.90
2022-11-18T03:03:36.705Z,99.90
2022-11-18T03:08:52.567Z,99.90
2022-11-18T03:14:05.506Z,99.90
2022-11-18T03:19:34.269Z,99.90
2022-11-18T03:24:41.024Z,99.90
2022-11-18T03:29:55.447Z,99.90
2022-11-18T03:35:05.722Z,99.90
2022-11-18T03:40:14.922Z,99.90
2022-11-18T03:45:51.364Z,99.90
2022-11-18T03:51:06.634Z,99.90
2022-11-18T03:56:17.604Z,99.90
2022-11-18T04:01:28.936Z,99.90
2022-11-18T04:06:44.814Z,99.90
2022-11-18T04:12:04.920Z,99.90
2022-11-18T04:17:15.710Z,99.90
2022-11-18T04:22:19.214Z,99.90
2022-11-18T04:27:20.993Z,99.90
2022-11-18T04:32:22.697Z,99.90
2022-11-18T04:37:25.067Z,99.90
2022-11-18T04:42:26.945Z,99.90
2022-11-18T04:47:28.858Z,99.90
2022-11-18T04:52:30.692Z,99.90
2022-11-18T04:57:32.496Z,99.90
2022-11-18T05:02:34.243Z,99.90
2022-11-18T05:07:36.128Z,99.90
2022-11-18T05:12:49.994Z,99.90
2022-11-18T05:17:51.849Z,99.90
2022-11-18T05:22:53.614Z,99.90
2022-11-18T05:27:55.390Z,99.90
2022-11-18T05:32:57.116Z,99.90
2022-11-18T05:37:58.854Z,99.90
2022-11-18T05:43:12.753Z,99.90
2022-11-18T05:48:14.514Z,99.90
2022-11-18T05:53:18.116Z,99.90
2022-11-18T05:58:19.848Z,99.90
2022-11-18T06:03:30.468Z,99.90
2022-11-18T06:08:38.375Z,99.90
2022-11-18T06:13:50.368Z,99.90
2022-11-18T06:18:52.622Z,99.90
2022-11-18T06:23:55.179Z,99.90
2022-11-18T06:28:57.202Z,99.90
2022-11-18T06:33:58.973Z,99.90
2022-11-18T06:39:06.647Z,99.90
2022-11-18T06:44:08.506Z,99.90
2022-11-18T06:49:10.258Z,99.90
2022-11-18T06:54:12.254Z,99.90
2022-11-18T06:59:14.542Z,99.90
2022-11-18T07:04:16.512Z,99.90
2022-11-18T07:09:18.576Z,99.90
2022-11-18T07:14:20.426Z,99.90
2022-11-18T07:19:22.270Z,99.90
2022-11-18T07:24:24.006Z,99.90
2022-11-18T07:29:25.844Z,99.90
2022-11-18T07:34:27.595Z,99.90
2022-11-18T07:39:29.554Z,99.90
2022-11-18T07:44:31.326Z,99.90
2022-11-18T07:49:33.081Z,99.90
2022-11-18T07:54:34.865Z,99.90
2022-11-18T07:59:36.902Z,99.90
2022-11-18T08:04:38.745Z,99.90
2022-11-18T08:09:40.691Z,99.90
2022-11-18T08:14:42.450Z,99.90
2022-11-18T08:19:44.323Z,99.90
2022-11-18T08:24:46.715Z,99.90
2022-11-18T08:29:48.434Z,99.90
2022-11-18T08:34:51.473Z,99.90
2022-11-18T08:39:53.246Z,99.90
2022-11-18T08:44:55.237Z,99.90
2022-11-18T08:49:56.974Z,99.90
2022-11-18T08:54:58.830Z,99.90
2022-11-18T09:00:00.870Z,99.90
2022-11-18T09:05:02.897Z,99.90
2022-11-18T09:10:05.178Z,99.90
2022-11-18T09:15:13.787Z,99.90
2022-11-18T09:20:18.071Z,99.90
2022-11-18T09:25:19.821Z,99.90
2022-11-18T09:30:21.571Z,99.90
2022-11-18T09:35:23.450Z,99.90
2022-11-18T09:40:25.556Z,99.90
2022-11-18T09:45:39.973Z,99.90
2022-11-18T09:50:49.557Z,99.90
2022-11-18T09:55:52.597Z,99.90
2022-11-18T10:00:54.859Z,99.90
2022-11-18T10:06:09.659Z,99.90
2022-11-18T10:11:17.694Z,99.90
2022-11-18T10:16:46.706Z,99.90
2022-11-18T10:22:16.751Z,99.90
2022-11-18T10:27:23.102Z,99.90
2022-11-18T10:32:25.118Z,99.90
2022-11-18T10:38:06.251Z,99.90
2022-11-18T10:42:58.944Z,99.90
2022-11-18T10:48:20.488Z,99.90
2022-11-18T10:53:37.277Z,99.90
2022-11-18T10:58:46.382Z,99.90
2022-11-18T11:04:02.904Z,99.90
2022-11-18T11:09:31.202Z,98.20
2022-11-18T11:14:57.686Z,96.30
2022-11-18T11:20:17.684Z,96.70
2022-11-18T11:25:28.510Z,95.70
2022-11-18T11:30:35.468Z,95.90
2022-11-18T11:35:37.236Z,96.10
2022-11-18T11:40:58.201Z,95.50
2022-11-18T11:46:18.218Z,96.40
2022-11-18T11:51:47.886Z,95.10
2022-11-18T11:57:05.561Z,94.00
2022-11-18T12:02:31.935Z,94.60
2022-11-18T12:07:43.644Z,95.10
2022-11-18T12:13:14.941Z,95.30
2022-11-18T12:18:33.793Z,95.50
2022-11-18T12:23:35.598Z,96.00
2022-11-18T12:28:42.577Z,96.60
2022-11-18T12:34:18.546Z,98.70
2022-11-18T12:39:26.815Z,99.90
2022-11-18T12:44:29.914Z,99.90
2022-11-18T12:49:32.054Z,99.90
2022-11-18T12:54:44.116Z,99.90
2022-11-18T12:59:46.250Z,99.90
2022-11-18T13:05:19.423Z,99.90
2022-11-18T13:10:29.198Z,99.90
2022-11-18T13:15:49.787Z,99.90
2022-11-18T13:21:20.012Z,99.90
2022-11-18T13:26:27.456Z,99.90
2022-11-18T13:32:12.783Z,99.90
2022-11-18T13:37:21.659Z,99.90
2022-11-18T13:42:28.950Z,99.90
2022-11-18T13:47:48.950Z,99.90
2022-11-18T13:53:22.845Z,99.90
2022-11-18T13:58:33.946Z,99.90
2022-11-18T14:03:46.274Z,99.90
2022-11-18T14:08:50.218Z,99.90
2022-11-18T14:13:54.688Z,99.90
2022-11-18T14:18:56.478Z,99.90
2022-11-18T14:23:59.052Z,99.90
2022-11-18T14:29:20.950Z,99.90
2022-11-18T14:34:26.675Z,99.90
2022-11-18T14:39:31.161Z,99.90
2022-11-18T14:44:33.216Z,99.90
2022-11-18T14:49:36.886Z,99.90
2022-11-18T14:54:38.789Z,99.90
2022-11-18T14:59:40.534Z,99.90
2022-11-18T15:04:42.709Z,99.90
2022-11-18T15:09:44.870Z,99.90
2022-11-18T15:14:46.766Z,99.90
2022-11-18T15:19:48.509Z,99.90
2022-11-18T15:24:50.536Z,99.90
2022-11-18T15:29:54.316Z,99.90
2022-11-18T15:34:57.119Z,99.90
2022-11-18T15:39:59.786Z,99.90
2022-11-18T15:45:01.514Z,99.90
2022-11-18T15:50:03.554Z,99.90
2022-11-18T15:55:08.174Z,99.90
2022-11-18T16:00:10.794Z,99.90
2022-11-18T16:05:12.577Z,99.90
2022-11-18T16:10:32.985Z,99.90
2022-11-18T16:15:43.602Z,99.90
2022-11-18T16:20:45.316Z,99.90
2022-11-18T16:25:47.260Z,99.90
2022-11-18T16:31:09.050Z,99.90
2022-11-18T16:36:10.882Z,99.90
2022-11-18T16:41:31.296Z,99.90
2022-11-18T16:46:36.028Z,99.90
2022-11-18T16:51:39.408Z,99.90
2022-11-18T16:56:41.515Z,99.90
2022-11-18T17:01:43.852Z,99.90
2022-11-18T17:06:48.546Z,99.90
2022-11-18T17:11:52.174Z,99.90
2022-11-18T17:16:54.178Z,99.90
2022-11-18T17:21:55.926Z,99.90
2022-11-18T17:26:57.985Z,99.90
2022-11-18T17:32:01.267Z,99.90
2022-11-18T17:37:06.820Z,99.90
2022-11-18T17:42:14.806Z,99.90
2022-11-18T17:47:17.101Z,99.90
2022-11-18T17:52:19.338Z,99.90
2022-11-18T17:57:21.123Z,99.90
2022-11-18T18:02:22.919Z,99.90
2022-11-18T18:07:24.795Z,99.90
2022-11-18T18:12:45.073Z,99.90
2022-11-18T18:17:48.381Z,99.90
2022-11-18T18:22:50.224Z,99.90
2022-11-18T18:27:51.946Z,99.90
2022-11-18T18:32:53.660Z,99.90
2022-11-18T18:37:55.744Z,99.90
2022-11-18T18:42:57.498Z,99.90
2022-11-18T18:48:03.753Z,99.90
2022-11-18T18:53:05.870Z,99.90
2022-11-18T18:58:07.768Z,99.90
2022-11-18T19:03:09.459Z,99.90
2022-11-18T19:08:11.214Z,99.90
2022-11-18T19:13:13.237Z,99.90
2022-11-18T19:18:15.194Z,99.90
2022-11-18T19:23:18.115Z,99.90
2022-11-18T19:28:19.902Z,99.90
2022-11-18T19:33:21.732Z,99.90
2022-11-18T19:38:23.466Z,99.90
2022-11-18T19:43:27.246Z,99.90
2022-11-18T19:48:29.116Z,99.90
2022-11-18T19:53:33.806Z,99.90
2022-11-18T19:58:37.642Z,99.90
2022-11-18T20:03:40.300Z,99.90
2022-11-18T20:08:43.283Z,99.90
2022-11-18T20:13:45.928Z,99.90
2022-11-18T20:18:49.027Z,99.90
2022-11-18T20:24:01.675Z,99.90
2022-11-18T20:29:04.426Z,99.90
2022-11-18T20:34:06.204Z,99.90
2022-11-18T20:39:13.046Z,99.90
2022-11-18T20:44:14.845Z,99.90
2022-11-18T20:49:16.877Z,99.90
2022-11-18T20:54:18.748Z,99.90
2022-11-18T20:59:20.692Z,99.90
2022-11-18T21:04:22.706Z,99.90
2022-11-18T21:09:24.879Z,99.90
2022-11-18T21:14:26.785Z,99.90
2022-11-18T21:19:29.557Z,99.90
2022-11-18T21:24:32.898Z,99.90
2022-11-18T21:29:34.868Z,99.90
2022-11-18T21:34:36.746Z,99.90
2022-11-18T21:39:38.604Z,99.90
2022-11-18T21:44:40.345Z,99.90
2022-11-18T21:49:42.157Z,99.90
2022-11-18T21:54:43.899Z,99.90
2022-11-18T21:59:45.626Z,99.90
2022-11-18T22:04:53.282Z,99.90
2022-11-18T22:09:55.321Z,99.90
2022-11-18T22:14:57.155Z,99.90
2022-11-18T22:19:58.930Z,99.90
2022-11-18T22:25:00.677Z,99.90
2022-11-18T22:30:02.404Z,99.90
2022-11-18T22:35:04.455Z,99.90
2022-11-18T22:40:07.207Z,99.90
2022-11-18T22:45:09.198Z,99.90
2022-11-18T22:50:11.107Z,99.90
2022-11-18T22:55:13.115Z,99.90
2022-11-18T23:00:16.032Z,99.90
2022-11-18T23:05:17.874Z,99.90
2022-11-18T23:10:19.854Z,99.90
2022-11-18T23:15:21.650Z,99.90
2022-11-18T23:20:23.786Z,99.90
2022-11-18T23:25:25.526Z,99.90
2022-11-18T23:30:27.281Z,99.90
2022-11-18T23:35:28.998Z,99.90
2022-11-18T23:40:31.342Z,99.90
2022-11-18T23:45:33.106Z,99.90
2022-11-18T23:50:39.120Z,99.90
2022-11-18T23:55:41.359Z,99.90
